sensor_id;sensor_type;location;lat;lon;timestamp;P1;durP1;ratioP1;P2;durP2;ratioP2
20956;SDS011;10637;47.970;7.830;2023-09-12T00:02:21;16.37;;;8.13;;
20956;SDS011;10637;47.970;7.830;2023-09-12T00:07:23;14.30;;;7.37;;
20956;SDS011;10637;47.970;7.830;2023-09-12T00:12:25;16.43;;;7.60;;
20956;SDS011;10637;47.970;7.830;2023-09-12T00:17:27;15.37;;;7.60;;
20956;SDS011;10637;47.970;7.830;2023-09-12T00:22:29;12.23;;;7.13;;
20956;SDS011;10637;47.970;7.830;2023-09-12T00:27:31;14.07;;;7.60;;
20956;SDS011;10637;47.970;7.830;2023-09-12T00:32:32;14.27;;;8.10;;
20956;SDS011;10637;47.970;7.830;2023-09-12T00:37:34;13.50;;;7.50;;
20956;SDS011;10637;47.970;7.830;2023-09-12T00:42:36;14.30;;;7.87;;
20956;SDS011;10637;47.970;7.830;2023-09-12T00:47:38;15.67;;;8.13;;
20956;SDS011;10637;47.970;7.830;2023-09-12T00:52:40;15.93;;;8.33;;
20956;SDS011;10637;47.970;7.830;2023-09-12T00:57:43;15.30;;;7.83;;
20956;SDS011;10637;47.970;7.830;2023-09-12T01:02:46;14.10;;;8.07;;
20956;SDS011;10637;47.970;7.830;2023-09-12T01:07:48;16.57;;;8.37;;
20956;SDS011;10637;47.970;7.830;2023-09-12T01:12:50;13.83;;;8.23;;
20956;SDS011;10637;47.970;7.830;2023-09-12T01:17:53;15.60;;;8.57;;
20956;SDS011;10637;47.970;7.830;2023-09-12T01:28:18;15.23;;;8.17;;
20956;SDS011;10637;47.970;7.830;2023-09-12T01:33:22;14.30;;;8.70;;
20956;SDS011;10637;47.970;7.830;2023-09-12T01:38:24;15.17;;;8.60;;
20956;SDS011;10637;47.970;7.830;2023-09-12T01:43:26;15.23;;;8.23;;
20956;SDS011;10637;47.970;7.830;2023-09-12T01:48:31;15.80;;;8.97;;
20956;SDS011;10637;47.970;7.830;2023-09-12T01:53:36;14.83;;;8.67;;
20956;SDS011;10637;47.970;7.830;2023-09-12T01:58:37;15.83;;;8.77;;
20956;SDS011;10637;47.970;7.830;2023-09-12T02:03:40;13.10;;;8.20;;
20956;SDS011;10637;47.970;7.830;2023-09-12T02:08:42;15.40;;;8.77;;
20956;SDS011;10637;47.970;7.830;2023-09-12T02:13:44;15.10;;;8.40;;
20956;SDS011;10637;47.970;7.830;2023-09-12T02:18:46;15.57;;;8.50;;
20956;SDS011;10637;47.970;7.830;2023-09-12T02:23:47;12.93;;;7.50;;
20956;SDS011;10637;47.970;7.830;2023-09-12T02:28:49;14.70;;;8.23;;
20956;SDS011;10637;47.970;7.830;2023-09-12T02:33:51;14.70;;;8.43;;
20956;SDS011;10637;47.970;7.830;2023-09-12T02:38:53;15.00;;;8.87;;
20956;SDS011;10637;47.970;7.830;2023-09-12T02:43:54;14.93;;;8.47;;
20956;SDS011;10637;47.970;7.830;2023-09-12T02:48:56;13.43;;;8.53;;
20956;SDS011;10637;47.970;7.830;2023-09-12T02:53:58;16.37;;;9.13;;
20956;SDS011;10637;47.970;7.830;2023-09-12T02:59:00;16.60;;;9.37;;
20956;SDS011;10637;47.970;7.830;2023-09-12T03:04:01;15.73;;;9.53;;
20956;SDS011;10637;47.970;7.830;2023-09-12T03:09:04;13.57;;;9.43;;
20956;SDS011;10637;47.970;7.830;2023-09-12T03:14:07;15.53;;;9.63;;
20956;SDS011;10637;47.970;7.830;2023-09-12T03:19:09;15.53;;;9.57;;
20956;SDS011;10637;47.970;7.830;2023-09-12T03:24:11;15.80;;;9.23;;
20956;SDS011;10637;47.970;7.830;2023-09-12T03:29:12;16.87;;;10.13;;
20956;SDS011;10637;47.970;7.830;2023-09-12T03:34:14;15.37;;;9.60;;
20956;SDS011;10637;47.970;7.830;2023-09-12T03:39:16;17.20;;;10.63;;
20956;SDS011;10637;47.970;7.830;2023-09-12T03:44:18;18.47;;;10.40;;
20956;SDS011;10637;47.970;7.830;2023-09-12T03:49:19;16.63;;;10.47;;
20956;SDS011;10637;47.970;7.830;2023-09-12T03:54:21;18.30;;;10.43;;
20956;SDS011;10637;47.970;7.830;2023-09-12T03:59:23;18.67;;;10.03;;
20956;SDS011;10637;47.970;7.830;2023-09-12T04:04:25;21.23;;;10.57;;
20956;SDS011;10637;47.970;7.830;2023-09-12T04:09:27;16.70;;;10.50;;
20956;SDS011;10637;47.970;7.830;2023-09-12T04:14:29;19.60;;;10.93;;
20956;SDS011;10637;47.970;7.830;2023-09-12T04:19:31;14.97;;;9.93;;
20956;SDS011;10637;47.970;7.830;2023-09-12T04:24:33;15.73;;;10.40;;
20956;SDS011;10637;47.970;7.830;2023-09-12T04:29:35;22.07;;;11.27;;
20956;SDS011;10637;47.970;7.830;2023-09-12T04:34:37;15.47;;;10.07;;
20956;SDS011;10637;47.970;7.830;2023-09-12T04:39:39;17.17;;;9.90;;
20956;SDS011;10637;47.970;7.830;2023-09-12T04:44:41;18.00;;;10.43;;
20956;SDS011;10637;47.970;7.830;2023-09-12T04:49:43;15.30;;;8.90;;
20956;SDS011;10637;47.970;7.830;2023-09-12T04:54:45;21.77;;;11.33;;
20956;SDS011;10637;47.970;7.830;2023-09-12T04:59:47;21.83;;;11.60;;
20956;SDS011;10637;47.970;7.830;2023-09-12T05:04:49;18.00;;;11.63;;
20956;SDS011;10637;47.970;7.830;2023-09-12T05:09:51;17.10;;;10.60;;
20956;SDS011;10637;47.970;7.830;2023-09-12T05:14:52;19.57;;;10.80;;
20956;SDS011;10637;47.970;7.830;2023-09-12T05:19:54;17.50;;;10.67;;
20956;SDS011;10637;47.970;7.830;2023-09-12T05:24:56;17.27;;;9.77;;
20956;SDS011;10637;47.970;7.830;2023-09-12T05:29:58;16.37;;;9.70;;
20956;SDS011;10637;47.970;7.830;2023-09-12T05:34:59;20.03;;;10.90;;
20956;SDS011;10637;47.970;7.830;2023-09-12T05:40:19;17.70;;;10.30;;
20956;SDS011;10637;47.970;7.830;2023-09-12T05:45:21;18.20;;;10.20;;
20956;SDS011;10637;47.970;7.830;2023-09-12T05:50:24;22.23;;;11.17;;
20956;SDS011;10637;47.970;7.830;2023-09-12T05:55:26;17.30;;;9.97;;
20956;SDS011;10637;47.970;7.830;2023-09-12T06:00:27;17.83;;;9.53;;
20956;SDS011;10637;47.970;7.830;2023-09-12T06:05:29;14.80;;;9.10;;
20956;SDS011;10637;47.970;7.830;2023-09-12T06:10:31;14.73;;;9.20;;
20956;SDS011;10637;47.970;7.830;2023-09-12T06:15:33;15.63;;;8.77;;
20956;SDS011;10637;47.970;7.830;2023-09-12T06:20:35;15.27;;;8.37;;
20956;SDS011;10637;47.970;7.830;2023-09-12T06:25:37;17.80;;;8.60;;
20956;SDS011;10637;47.970;7.830;2023-09-12T06:30:39;16.47;;;9.27;;
20956;SDS011;10637;47.970;7.830;2023-09-12T06:35:41;16.77;;;8.93;;
20956;SDS011;10637;47.970;7.830;2023-09-12T06:40:43;16.03;;;9.70;;
20956;SDS011;10637;47.970;7.830;2023-09-12T06:45:45;19.47;;;9.10;;
20956;SDS011;10637;47.970;7.830;2023-09-12T06:50:47;18.77;;;9.73;;
20956;SDS011;10637;47.970;7.830;2023-09-12T06:55:53;15.17;;;9.10;;
20956;SDS011;10637;47.970;7.830;2023-09-12T07:01:01;16.10;;;9.60;;
20956;SDS011;10637;47.970;7.830;2023-09-12T07:06:07;20.30;;;9.33;;
20956;SDS011;10637;47.970;7.830;2023-09-12T07:11:09;17.60;;;9.60;;
20956;SDS011;10637;47.970;7.830;2023-09-12T07:16:11;14.90;;;9.17;;
20956;SDS011;10637;47.970;7.830;2023-09-12T07:21:14;17.30;;;9.50;;
20956;SDS011;10637;47.970;7.830;2023-09-12T07:26:16;20.43;;;9.17;;
20956;SDS011;10637;47.970;7.830;2023-09-12T07:31:18;17.50;;;9.33;;
20956;SDS011;10637;47.970;7.830;2023-09-12T07:36:20;23.87;;;10.00;;
20956;SDS011;10637;47.970;7.830;2023-09-12T07:41:22;19.27;;;9.20;;
20956;SDS011;10637;47.970;7.830;2023-09-12T07:46:24;16.40;;;8.63;;
20956;SDS011;10637;47.970;7.830;2023-09-12T07:51:26;19.13;;;9.20;;
20956;SDS011;10637;47.970;7.830;2023-09-12T07:56:27;16.70;;;8.77;;
20956;SDS011;10637;47.970;7.830;2023-09-12T08:01:29;16.77;;;8.70;;
20956;SDS011;10637;47.970;7.830;2023-09-12T08:06:32;13.10;;;8.87;;
20956;SDS011;10637;47.970;7.830;2023-09-12T08:11:54;15.53;;;8.50;;
20956;SDS011;10637;47.970;7.830;2023-09-12T08:16:56;14.07;;;8.32;;
20956;SDS011;10637;47.970;7.830;2023-09-12T08:21:57;16.58;;;8.93;;
20956;SDS011;10637;47.970;7.830;2023-09-12T08:26:59;15.32;;;8.50;;
20956;SDS011;10637;47.970;7.830;2023-09-12T08:32:01;12.93;;;7.55;;
20956;SDS011;10637;47.970;7.830;2023-09-12T08:37:04;15.20;;;7.50;;
20956;SDS011;10637;47.970;7.830;2023-09-12T08:42:06;14.45;;;7.60;;
20956;SDS011;10637;47.970;7.830;2023-09-12T08:47:11;16.83;;;8.43;;
20956;SDS011;10637;47.970;7.830;2023-09-12T08:52:13;15.18;;;8.63;;
20956;SDS011;10637;47.970;7.830;2023-09-12T08:57:15;12.23;;;7.28;;
20956;SDS011;10637;47.970;7.830;2023-09-12T09:02:17;14.02;;;7.70;;
20956;SDS011;10637;47.970;7.830;2023-09-12T09:07:20;12.60;;;7.13;;
20956;SDS011;10637;47.970;7.830;2023-09-12T09:12:23;14.63;;;7.47;;
20956;SDS011;10637;47.970;7.830;2023-09-12T09:17:25;11.93;;;6.68;;
20956;SDS011;10637;47.970;7.830;2023-09-12T09:22:36;13.38;;;6.80;;
20956;SDS011;10637;47.970;7.830;2023-09-12T09:27:38;12.40;;;5.90;;
20956;SDS011;10637;47.970;7.830;2023-09-12T09:32:39;12.50;;;6.10;;
20956;SDS011;10637;47.970;7.830;2023-09-12T09:37:42;13.68;;;6.43;;
20956;SDS011;10637;47.970;7.830;2023-09-12T09:42:44;13.98;;;6.78;;
20956;SDS011;10637;47.970;7.830;2023-09-12T09:47:48;10.90;;;5.70;;
20956;SDS011;10637;47.970;7.830;2023-09-12T09:52:54;10.85;;;6.20;;
20956;SDS011;10637;47.970;7.830;2023-09-12T09:57:58;13.20;;;6.63;;
20956;SDS011;10637;47.970;7.830;2023-09-12T10:03:00;12.18;;;6.15;;
20956;SDS011;10637;47.970;7.830;2023-09-12T10:08:06;13.80;;;5.82;;
20956;SDS011;10637;47.970;7.830;2023-09-12T10:13:11;10.77;;;5.50;;
20956;SDS011;10637;47.970;7.830;2023-09-12T10:18:18;13.27;;;6.05;;
20956;SDS011;10637;47.970;7.830;2023-09-12T10:23:37;10.82;;;6.10;;
20956;SDS011;10637;47.970;7.830;2023-09-12T10:28:44;15.15;;;6.45;;
20956;SDS011;10637;47.970;7.830;2023-09-12T10:33:47;12.55;;;7.70;;
20956;SDS011;10637;47.970;7.830;2023-09-12T10:38:51;11.60;;;5.15;;
20956;SDS011;10637;47.970;7.830;2023-09-12T10:43:54;10.02;;;5.88;;
20956;SDS011;10637;47.970;7.830;2023-09-12T10:48:59;13.27;;;6.20;;
20956;SDS011;10637;47.970;7.830;2023-09-12T10:54:01;19.52;;;7.07;;
20956;SDS011;10637;47.970;7.830;2023-09-12T11:09:28;11.73;;;4.95;;
20956;SDS011;10637;47.970;7.830;2023-09-12T11:14:31;10.10;;;5.30;;
20956;SDS011;10637;47.970;7.830;2023-09-12T11:19:46;13.30;;;5.38;;
20956;SDS011;10637;47.970;7.830;2023-09-12T11:24:53;12.02;;;5.32;;
20956;SDS011;10637;47.970;7.830;2023-09-12T11:30:03;11.48;;;6.10;;
20956;SDS011;10637;47.970;7.830;2023-09-12T11:35:09;10.32;;;5.55;;
20956;SDS011;10637;47.970;7.830;2023-09-12T11:45:13;12.02;;;6.72;;
20956;SDS011;10637;47.970;7.830;2023-09-12T11:50:35;12.68;;;5.43;;
20956;SDS011;10637;47.970;7.830;2023-09-12T11:55:43;10.50;;;5.95;;
20956;SDS011;10637;47.970;7.830;2023-09-12T12:00:50;12.05;;;6.57;;
20956;SDS011;10637;47.970;7.830;2023-09-12T12:05:54;12.35;;;5.50;;
20956;SDS011;10637;47.970;7.830;2023-09-12T12:10:57;11.63;;;5.75;;
20956;SDS011;10637;47.970;7.830;2023-09-12T12:16:00;12.30;;;5.63;;
20956;SDS011;10637;47.970;7.830;2023-09-12T12:21:16;11.70;;;5.28;;
20956;SDS011;10637;47.970;7.830;2023-09-12T12:26:18;12.18;;;7.25;;
20956;SDS011;10637;47.970;7.830;2023-09-12T12:31:20;13.38;;;8.88;;
20956;SDS011;10637;47.970;7.830;2023-09-12T12:36:27;13.10;;;8.10;;
20956;SDS011;10637;47.970;7.830;2023-09-12T12:41:29;11.35;;;6.38;;
20956;SDS011;10637;47.970;7.830;2023-09-12T12:46:52;12.43;;;7.70;;
20956;SDS011;10637;47.970;7.830;2023-09-12T12:51:54;11.93;;;6.00;;
20956;SDS011;10637;47.970;7.830;2023-09-12T12:56:57;17.35;;;5.60;;
20956;SDS011;10637;47.970;7.830;2023-09-12T13:01:59;10.77;;;6.30;;
20956;SDS011;10637;47.970;7.830;2023-09-12T13:07:01;16.15;;;8.18;;
20956;SDS011;10637;47.970;7.830;2023-09-12T13:12:03;11.35;;;6.30;;
20956;SDS011;10637;47.970;7.830;2023-09-12T13:17:06;11.73;;;5.68;;
20956;SDS011;10637;47.970;7.830;2023-09-12T13:22:09;14.93;;;6.10;;
20956;SDS011;10637;47.970;7.830;2023-09-12T13:27:10;14.15;;;7.85;;
20956;SDS011;10637;47.970;7.830;2023-09-12T13:32:12;15.13;;;8.88;;
20956;SDS011;10637;47.970;7.830;2023-09-12T13:37:16;13.85;;;6.68;;
20956;SDS011;10637;47.970;7.830;2023-09-12T13:42:20;14.43;;;7.45;;
20956;SDS011;10637;47.970;7.830;2023-09-12T13:47:22;10.93;;;6.72;;
20956;SDS011;10637;47.970;7.830;2023-09-12T13:52:26;12.25;;;6.70;;
20956;SDS011;10637;47.970;7.830;2023-09-12T13:57:29;12.30;;;7.90;;
20956;SDS011;10637;47.970;7.830;2023-09-12T14:02:34;10.75;;;5.00;;
20956;SDS011;10637;47.970;7.830;2023-09-12T14:07:36;12.32;;;5.30;;
20956;SDS011;10637;47.970;7.830;2023-09-12T14:12:39;9.63;;;4.13;;
20956;SDS011;10637;47.970;7.830;2023-09-12T14:17:41;10.50;;;5.07;;
20956;SDS011;10637;47.970;7.830;2023-09-12T14:22:56;10.77;;;4.50;;
20956;SDS011;10637;47.970;7.830;2023-09-12T14:27:59;9.75;;;4.80;;
20956;SDS011;10637;47.970;7.830;2023-09-12T14:33:01;11.18;;;4.32;;
20956;SDS011;10637;47.970;7.830;2023-09-12T14:38:04;10.82;;;4.90;;
20956;SDS011;10637;47.970;7.830;2023-09-12T14:43:06;10.30;;;4.80;;
20956;SDS011;10637;47.970;7.830;2023-09-12T14:48:08;13.07;;;5.68;;
20956;SDS011;10637;47.970;7.830;2023-09-12T14:53:10;10.80;;;4.72;;
20956;SDS011;10637;47.970;7.830;2023-09-12T14:58:14;11.90;;;5.10;;
20956;SDS011;10637;47.970;7.830;2023-09-12T15:03:16;11.18;;;5.65;;
20956;SDS011;10637;47.970;7.830;2023-09-12T15:08:18;12.65;;;5.90;;
20956;SDS011;10637;47.970;7.830;2023-09-12T15:13:19;11.43;;;6.20;;
20956;SDS011;10637;47.970;7.830;2023-09-12T15:18:21;12.05;;;5.45;;
20956;SDS011;10637;47.970;7.830;2023-09-12T15:23:23;10.40;;;5.35;;
20956;SDS011;10637;47.970;7.830;2023-09-12T15:28:25;13.23;;;5.50;;
20956;SDS011;10637;47.970;7.830;2023-09-12T15:33:27;12.10;;;6.38;;
20956;SDS011;10637;47.970;7.830;2023-09-12T15:38:29;13.73;;;8.02;;
20956;SDS011;10637;47.970;7.830;2023-09-12T15:43:31;11.75;;;6.10;;
20956;SDS011;10637;47.970;7.830;2023-09-12T15:48:33;12.45;;;5.72;;
20956;SDS011;10637;47.970;7.830;2023-09-12T15:53:35;13.05;;;7.22;;
20956;SDS011;10637;47.970;7.830;2023-09-12T15:58:37;11.85;;;5.22;;
20956;SDS011;10637;47.970;7.830;2023-09-12T16:03:39;11.30;;;6.60;;
20956;SDS011;10637;47.970;7.830;2023-09-12T16:08:41;12.93;;;6.28;;
20956;SDS011;10637;47.970;7.830;2023-09-12T16:13:42;12.52;;;5.95;;
20956;SDS011;10637;47.970;7.830;2023-09-12T16:18:44;13.07;;;6.25;;
20956;SDS011;10637;47.970;7.830;2023-09-12T16:23:46;13.07;;;6.57;;
20956;SDS011;10637;47.970;7.830;2023-09-12T16:28:48;12.82;;;6.35;;
20956;SDS011;10637;47.970;7.830;2023-09-12T16:33:50;23.88;;;6.30;;
20956;SDS011;10637;47.970;7.830;2023-09-12T16:38:52;13.10;;;6.88;;
20956;SDS011;10637;47.970;7.830;2023-09-12T16:43:54;14.55;;;6.75;;
20956;SDS011;10637;47.970;7.830;2023-09-12T16:48:57;16.48;;;7.30;;
20956;SDS011;10637;47.970;7.830;2023-09-12T16:53:59;13.73;;;6.75;;
20956;SDS011;10637;47.970;7.830;2023-09-12T16:59:00;15.75;;;6.97;;
20956;SDS011;10637;47.970;7.830;2023-09-12T17:04:03;17.13;;;7.47;;
20956;SDS011;10637;47.970;7.830;2023-09-12T17:09:06;14.75;;;5.40;;
20956;SDS011;10637;47.970;7.830;2023-09-12T17:14:08;15.85;;;6.78;;
20956;SDS011;10637;47.970;7.830;2023-09-12T17:19:10;15.82;;;6.75;;
20956;SDS011;10637;47.970;7.830;2023-09-12T17:24:12;13.40;;;6.43;;
20956;SDS011;10637;47.970;7.830;2023-09-12T17:29:14;13.40;;;5.93;;
20956;SDS011;10637;47.970;7.830;2023-09-12T17:34:16;17.70;;;6.00;;
20956;SDS011;10637;47.970;7.830;2023-09-12T17:39:18;14.57;;;6.30;;
20956;SDS011;10637;47.970;7.830;2023-09-12T17:44:20;13.37;;;5.87;;
20956;SDS011;10637;47.970;7.830;2023-09-12T17:49:22;18.20;;;5.60;;
20956;SDS011;10637;47.970;7.830;2023-09-12T17:54:25;14.90;;;5.17;;
20956;SDS011;10637;47.970;7.830;2023-09-12T17:59:27;14.63;;;5.37;;
20956;SDS011;10637;47.970;7.830;2023-09-12T18:04:29;14.00;;;5.27;;
20956;SDS011;10637;47.970;7.830;2023-09-12T18:09:32;15.73;;;5.70;;
20956;SDS011;10637;47.970;7.830;2023-09-12T18:14:35;12.30;;;5.40;;
20956;SDS011;10637;47.970;7.830;2023-09-12T18:19:37;13.13;;;5.37;;
20956;SDS011;10637;47.970;7.830;2023-09-12T18:24:39;13.50;;;5.00;;
20956;SDS011;10637;47.970;7.830;2023-09-12T18:29:41;13.20;;;5.20;;
20956;SDS011;10637;47.970;7.830;2023-09-12T18:34:43;15.40;;;5.63;;
20956;SDS011;10637;47.970;7.830;2023-09-12T18:39:44;11.50;;;5.30;;
20956;SDS011;10637;47.970;7.830;2023-09-12T18:44:46;17.43;;;5.43;;
20956;SDS011;10637;47.970;7.830;2023-09-12T18:49:48;10.77;;;4.90;;
20956;SDS011;10637;47.970;7.830;2023-09-12T18:54:50;15.33;;;5.60;;
20956;SDS011;10637;47.970;7.830;2023-09-12T18:59:52;15.83;;;6.27;;
20956;SDS011;10637;47.970;7.830;2023-09-12T19:04:54;16.13;;;6.17;;
20956;SDS011;10637;47.970;7.830;2023-09-12T19:09:57;15.20;;;6.10;;
20956;SDS011;10637;47.970;7.830;2023-09-12T19:14:59;14.97;;;6.80;;
20956;SDS011;10637;47.970;7.830;2023-09-12T19:20:01;12.53;;;6.47;;
20956;SDS011;10637;47.970;7.830;2023-09-12T19:25:03;13.37;;;6.27;;
20956;SDS011;10637;47.970;7.830;2023-09-12T19:30:05;14.97;;;6.70;;
20956;SDS011;10637;47.970;7.830;2023-09-12T19:35:13;16.23;;;6.57;;
20956;SDS011;10637;47.970;7.830;2023-09-12T19:40:15;13.70;;;6.23;;
20956;SDS011;10637;47.970;7.830;2023-09-12T19:45:18;16.63;;;6.20;;
20956;SDS011;10637;47.970;7.830;2023-09-12T19:50:20;13.30;;;6.63;;
20956;SDS011;10637;47.970;7.830;2023-09-12T19:55:22;14.48;;;6.30;;
20956;SDS011;10637;47.970;7.830;2023-09-12T20:00:26;14.00;;;6.40;;
20956;SDS011;10637;47.970;7.830;2023-09-12T20:05:29;13.00;;;6.20;;
20956;SDS011;10637;47.970;7.830;2023-09-12T20:10:34;13.60;;;6.80;;
20956;SDS011;10637;47.970;7.830;2023-09-12T20:15:36;14.33;;;6.50;;
20956;SDS011;10637;47.970;7.830;2023-09-12T20:20:39;16.20;;;6.50;;
20956;SDS011;10637;47.970;7.830;2023-09-12T20:25:41;13.90;;;6.20;;
20956;SDS011;10637;47.970;7.830;2023-09-12T20:30:43;13.63;;;6.53;;
20956;SDS011;10637;47.970;7.830;2023-09-12T20:35:45;16.30;;;6.90;;
20956;SDS011;10637;47.970;7.830;2023-09-12T20:40:47;15.30;;;6.80;;
20956;SDS011;10637;47.970;7.830;2023-09-12T20:45:51;13.07;;;7.37;;
20956;SDS011;10637;47.970;7.830;2023-09-12T20:50:54;15.93;;;7.30;;
20956;SDS011;10637;47.970;7.830;2023-09-12T20:55:56;14.57;;;7.00;;
20956;SDS011;10637;47.970;7.830;2023-09-12T21:00:57;14.07;;;7.23;;
20956;SDS011;10637;47.970;7.830;2023-09-12T21:05:59;14.60;;;7.63;;
20956;SDS011;10637;47.970;7.830;2023-09-12T21:11:01;16.27;;;7.93;;
20956;SDS011;10637;47.970;7.830;2023-09-12T21:16:03;14.43;;;7.53;;
20956;SDS011;10637;47.970;7.830;2023-09-12T21:21:06;14.53;;;7.73;;
20956;SDS011;10637;47.970;7.830;2023-09-12T21:26:08;15.03;;;8.20;;
20956;SDS011;10637;47.970;7.830;2023-09-12T21:31:10;15.13;;;8.47;;
20956;SDS011;10637;47.970;7.830;2023-09-12T21:36:12;14.50;;;8.00;;
20956;SDS011;10637;47.970;7.830;2023-09-12T21:41:14;14.93;;;7.10;;
20956;SDS011;10637;47.970;7.830;2023-09-12T21:46:16;14.67;;;7.23;;
20956;SDS011;10637;47.970;7.830;2023-09-12T21:51:18;20.00;;;7.53;;
20956;SDS011;10637;47.970;7.830;2023-09-12T21:56:19;17.33;;;8.03;;
20956;SDS011;10637;47.970;7.830;2023-09-12T22:01:21;14.13;;;7.63;;
20956;SDS011;10637;47.970;7.830;2023-09-12T22:06:23;14.57;;;7.37;;
20956;SDS011;10637;47.970;7.830;2023-09-12T22:11:27;12.97;;;7.60;;
20956;SDS011;10637;47.970;7.830;2023-09-12T22:16:29;15.03;;;7.73;;
20956;SDS011;10637;47.970;7.830;2023-09-12T22:21:31;18.07;;;7.73;;
20956;SDS011;10637;47.970;7.830;2023-09-12T22:26:33;16.00;;;8.20;;
20956;SDS011;10637;47.970;7.830;2023-09-12T22:31:35;13.63;;;7.80;;
20956;SDS011;10637;47.970;7.830;2023-09-12T22:36:37;17.73;;;8.40;;
20956;SDS011;10637;47.970;7.830;2023-09-12T22:41:39;15.53;;;7.23;;
20956;SDS011;10637;47.970;7.830;2023-09-12T22:46:41;16.07;;;7.27;;
20956;SDS011;10637;47.970;7.830;2023-09-12T22:51:43;15.27;;;6.03;;
20956;SDS011;10637;47.970;7.830;2023-09-12T22:56:45;17.63;;;6.07;;
20956;SDS011;10637;47.970;7.830;2023-09-12T23:01:46;13.77;;;5.60;;
20956;SDS011;10637;47.970;7.830;2023-09-12T23:06:48;17.23;;;5.27;;
20956;SDS011;10637;47.970;7.830;2023-09-12T23:11:50;11.53;;;4.73;;
20956;SDS011;10637;47.970;7.830;2023-09-12T23:16:55;10.47;;;4.57;;
20956;SDS011;10637;47.970;7.830;2023-09-12T23:21:57;11.10;;;4.73;;
20956;SDS011;10637;47.970;7.830;2023-09-12T23:26:59;11.53;;;4.23;;
20956;SDS011;10637;47.970;7.830;2023-09-12T23:32:05;10.07;;;3.87;;
20956;SDS011;10637;47.970;7.830;2023-09-12T23:37:07;10.07;;;4.00;;
20956;SDS011;10637;47.970;7.830;2023-09-12T23:42:09;10.17;;;3.93;;
20956;SDS011;10637;47.970;7.830;2023-09-12T23:47:12;10.40;;;3.87;;
20956;SDS011;10637;47.970;7.830;2023-09-12T23:52:17;11.17;;;3.90;;
20956;SDS011;10637;47.970;7.830;2023-09-12T23:57:19;10.47;;;3.70;;
